sensor_id;sensor_type;location;lat;lon;timestamp;P1;durP1;ratioP1;P2;durP2;ratioP2
62149;SDS011;48134;53.586;10.610;2023-08-20T00:01:13;14.15;;;4.90;;
62149;SDS011;48134;53.586;10.610;2023-08-20T00:03:45;13.68;;;5.25;;
62149;SDS011;48134;53.586;10.610;2023-08-20T00:06:15;11.85;;;4.65;;
62149;SDS011;48134;53.586;10.610;2023-08-20T00:08:48;13.20;;;4.63;;
62149;SDS011;48134;53.586;10.610;2023-08-20T00:11:21;13.10;;;4.82;;
62149;SDS011;48134;53.586;10.610;2023-08-20T00:13:56;11.07;;;4.47;;
62149;SDS011;48134;53.586;10.610;2023-08-20T00:16:29;13.05;;;4.80;;
62149;SDS011;48134;53.586;10.610;2023-08-20T00:19:03;9.95;;;4.43;;
62149;SDS011;48134;53.586;10.610;2023-08-20T00:21:39;12.20;;;4.80;;
62149;SDS011;48134;53.586;10.610;2023-08-20T00:24:14;13.05;;;5.10;;
62149;SDS011;48134;53.586;10.610;2023-08-20T00:26:48;13.60;;;5.20;;
62149;SDS011;48134;53.586;10.610;2023-08-20T00:29:18;15.18;;;5.50;;
62149;SDS011;48134;53.586;10.610;2023-08-20T00:31:47;10.38;;;4.97;;
62149;SDS011;48134;53.586;10.610;2023-08-20T00:34:15;14.02;;;5.00;;
62149;SDS011;48134;53.586;10.610;2023-08-20T00:36:43;11.00;;;5.18;;
62149;SDS011;48134;53.586;10.610;2023-08-20T00:39:11;12.20;;;5.30;;
62149;SDS011;48134;53.586;10.610;2023-08-20T00:41:39;13.15;;;4.80;;
62149;SDS011;48134;53.586;10.610;2023-08-20T00:44:12;12.45;;;5.30;;
62149;SDS011;48134;53.586;10.610;2023-08-20T00:46:47;15.73;;;6.18;;
62149;SDS011;48134;53.586;10.610;2023-08-20T00:49:20;13.43;;;5.33;;
62149;SDS011;48134;53.586;10.610;2023-08-20T00:51:53;12.50;;;5.30;;
62149;SDS011;48134;53.586;10.610;2023-08-20T00:54:22;15.18;;;5.53;;
62149;SDS011;48134;53.586;10.610;2023-08-20T00:56:50;12.38;;;5.75;;
62149;SDS011;48134;53.586;10.610;2023-08-20T00:59:24;14.82;;;5.63;;
62149;SDS011;48134;53.586;10.610;2023-08-20T01:01:58;15.35;;;6.50;;
62149;SDS011;48134;53.586;10.610;2023-08-20T01:04:31;16.08;;;6.13;;
62149;SDS011;48134;53.586;10.610;2023-08-20T01:07:09;13.80;;;6.20;;
62149;SDS011;48134;53.586;10.610;2023-08-20T01:09:48;16.67;;;6.28;;
62149;SDS011;48134;53.586;10.610;2023-08-20T01:12:29;14.98;;;6.18;;
62149;SDS011;48134;53.586;10.610;2023-08-20T01:15:03;17.25;;;6.10;;
62149;SDS011;48134;53.586;10.610;2023-08-20T01:17:38;15.80;;;6.30;;
62149;SDS011;48134;53.586;10.610;2023-08-20T01:20:11;16.20;;;5.95;;
62149;SDS011;48134;53.586;10.610;2023-08-20T01:22:54;16.07;;;6.47;;
62149;SDS011;48134;53.586;10.610;2023-08-20T01:25:42;15.00;;;6.60;;
62149;SDS011;48134;53.586;10.610;2023-08-20T01:28:21;16.45;;;6.55;;
62149;SDS011;48134;53.586;10.610;2023-08-20T01:30:51;17.05;;;6.63;;
62149;SDS011;48134;53.586;10.610;2023-08-20T01:33:26;15.57;;;6.45;;
62149;SDS011;48134;53.586;10.610;2023-08-20T01:35:57;17.50;;;6.68;;
62149;SDS011;48134;53.586;10.610;2023-08-20T01:38:30;19.20;;;6.32;;
62149;SDS011;48134;53.586;10.610;2023-08-20T01:40:59;16.00;;;6.97;;
62149;SDS011;48134;53.586;10.610;2023-08-20T01:43:34;12.60;;;6.43;;
62149;SDS011;48134;53.586;10.610;2023-08-20T01:46:07;16.07;;;6.57;;
62149;SDS011;48134;53.586;10.610;2023-08-20T01:48:41;16.75;;;7.18;;
62149;SDS011;48134;53.586;10.610;2023-08-20T01:51:14;18.15;;;6.20;;
62149;SDS011;48134;53.586;10.610;2023-08-20T01:53:47;15.55;;;6.70;;
62149;SDS011;48134;53.586;10.610;2023-08-20T01:56:23;14.40;;;6.30;;
62149;SDS011;48134;53.586;10.610;2023-08-20T01:58:52;14.40;;;6.68;;
62149;SDS011;48134;53.586;10.610;2023-08-20T02:01:26;17.77;;;7.07;;
62149;SDS011;48134;53.586;10.610;2023-08-20T02:03:54;18.95;;;6.60;;
62149;SDS011;48134;53.586;10.610;2023-08-20T02:06:27;17.10;;;6.68;;
62149;SDS011;48134;53.586;10.610;2023-08-20T02:09:00;17.45;;;7.40;;
62149;SDS011;48134;53.586;10.610;2023-08-20T02:11:34;19.38;;;7.15;;
62149;SDS011;48134;53.586;10.610;2023-08-20T02:14:04;16.90;;;7.65;;
62149;SDS011;48134;53.586;10.610;2023-08-20T02:16:38;17.52;;;7.60;;
62149;SDS011;48134;53.586;10.610;2023-08-20T02:19:11;15.98;;;7.40;;
62149;SDS011;48134;53.586;10.610;2023-08-20T02:21:45;16.30;;;7.30;;
62149;SDS011;48134;53.586;10.610;2023-08-20T02:24:14;16.33;;;7.25;;
62149;SDS011;48134;53.586;10.610;2023-08-20T02:26:47;46.37;;;10.77;;
62149;SDS011;48134;53.586;10.610;2023-08-20T02:29:17;16.65;;;7.18;;
62149;SDS011;48134;53.586;10.610;2023-08-20T02:31:50;26.27;;;9.13;;
62149;SDS011;48134;53.586;10.610;2023-08-20T02:34:18;16.23;;;7.77;;
62149;SDS011;48134;53.586;10.610;2023-08-20T02:36:46;18.13;;;7.80;;
62149;SDS011;48134;53.586;10.610;2023-08-20T02:39:20;432.58;;;44.25;;
62149;SDS011;48134;53.586;10.610;2023-08-20T02:41:53;20.90;;;8.50;;
62149;SDS011;48134;53.586;10.610;2023-08-20T02:44:27;17.20;;;8.10;;
62149;SDS011;48134;53.586;10.610;2023-08-20T02:47:01;19.98;;;8.30;;
62149;SDS011;48134;53.586;10.610;2023-08-20T02:49:34;18.23;;;7.85;;
62149;SDS011;48134;53.586;10.610;2023-08-20T02:52:02;18.10;;;8.35;;
62149;SDS011;48134;53.586;10.610;2023-08-20T02:54:36;15.43;;;7.93;;
62149;SDS011;48134;53.586;10.610;2023-08-20T02:57:09;14.73;;;7.72;;
62149;SDS011;48134;53.586;10.610;2023-08-20T02:59:39;16.83;;;7.90;;
62149;SDS011;48134;53.586;10.610;2023-08-20T03:02:12;17.20;;;8.03;;
62149;SDS011;48134;53.586;10.610;2023-08-20T03:04:40;18.58;;;8.48;;
62149;SDS011;48134;53.586;10.610;2023-08-20T03:07:13;19.80;;;7.80;;
62149;SDS011;48134;53.586;10.610;2023-08-20T03:09:46;15.75;;;7.55;;
62149;SDS011;48134;53.586;10.610;2023-08-20T03:12:14;16.48;;;7.05;;
62149;SDS011;48134;53.586;10.610;2023-08-20T03:14:49;15.43;;;7.00;;
62149;SDS011;48134;53.586;10.610;2023-08-20T03:17:22;14.52;;;6.95;;
62149;SDS011;48134;53.586;10.610;2023-08-20T03:19:54;19.15;;;7.43;;
62149;SDS011;48134;53.586;10.610;2023-08-20T03:22:28;17.15;;;7.68;;
62149;SDS011;48134;53.586;10.610;2023-08-20T03:25:01;15.77;;;7.75;;
62149;SDS011;48134;53.586;10.610;2023-08-20T03:27:30;13.82;;;6.88;;
62149;SDS011;48134;53.586;10.610;2023-08-20T03:30:05;16.25;;;7.60;;
62149;SDS011;48134;53.586;10.610;2023-08-20T03:32:35;16.20;;;7.15;;
62149;SDS011;48134;53.586;10.610;2023-08-20T03:35:08;16.42;;;7.53;;
62149;SDS011;48134;53.586;10.610;2023-08-20T03:37:37;13.75;;;7.38;;
62149;SDS011;48134;53.586;10.610;2023-08-20T03:40:11;15.88;;;7.60;;
62149;SDS011;48134;53.586;10.610;2023-08-20T03:42:40;16.30;;;7.70;;
62149;SDS011;48134;53.586;10.610;2023-08-20T03:45:10;14.20;;;7.60;;
62149;SDS011;48134;53.586;10.610;2023-08-20T03:47:38;19.58;;;9.02;;
62149;SDS011;48134;53.586;10.610;2023-08-20T03:50:10;15.50;;;8.00;;
62149;SDS011;48134;53.586;10.610;2023-08-20T03:52:39;17.95;;;9.30;;
62149;SDS011;48134;53.586;10.610;2023-08-20T03:55:12;19.77;;;9.00;;
62149;SDS011;48134;53.586;10.610;2023-08-20T03:57:45;18.88;;;9.20;;
62149;SDS011;48134;53.586;10.610;2023-08-20T04:00:20;21.45;;;10.30;;
62149;SDS011;48134;53.586;10.610;2023-08-20T04:02:48;25.63;;;11.05;;
62149;SDS011;48134;53.586;10.610;2023-08-20T04:05:21;26.75;;;12.50;;
62149;SDS011;48134;53.586;10.610;2023-08-20T04:07:55;25.03;;;12.20;;
62149;SDS011;48134;53.586;10.610;2023-08-20T04:10:28;28.40;;;11.93;;
62149;SDS011;48134;53.586;10.610;2023-08-20T04:13:02;24.73;;;11.65;;
62149;SDS011;48134;53.586;10.610;2023-08-20T04:15:37;46.13;;;11.48;;
62149;SDS011;48134;53.586;10.610;2023-08-20T04:18:10;42.50;;;10.90;;
62149;SDS011;48134;53.586;10.610;2023-08-20T04:20:43;30.73;;;10.68;;
62149;SDS011;48134;53.586;10.610;2023-08-20T04:23:17;25.98;;;11.20;;
62149;SDS011;48134;53.586;10.610;2023-08-20T04:25:50;33.90;;;10.77;;
62149;SDS011;48134;53.586;10.610;2023-08-20T04:28:23;36.33;;;10.73;;
62149;SDS011;48134;53.586;10.610;2023-08-20T04:30:58;22.75;;;11.25;;
62149;SDS011;48134;53.586;10.610;2023-08-20T04:33:36;55.90;;;8.27;;
62149;SDS011;48134;53.586;10.610;2023-08-20T04:36:10;19.92;;;9.27;;
62149;SDS011;48134;53.586;10.610;2023-08-20T04:38:38;19.38;;;9.52;;
62149;SDS011;48134;53.586;10.610;2023-08-20T04:41:12;23.75;;;8.63;;
62149;SDS011;48134;53.586;10.610;2023-08-20T04:43:45;52.67;;;8.93;;
62149;SDS011;48134;53.586;10.610;2023-08-20T04:46:15;89.45;;;8.82;;
62149;SDS011;48134;53.586;10.610;2023-08-20T04:48:43;24.27;;;8.82;;
62149;SDS011;48134;53.586;10.610;2023-08-20T04:51:18;45.63;;;7.80;;
62149;SDS011;48134;53.586;10.610;2023-08-20T04:53:46;101.60;;;7.65;;
62149;SDS011;48134;53.586;10.610;2023-08-20T04:56:14;41.58;;;7.45;;
62149;SDS011;48134;53.586;10.610;2023-08-20T04:58:42;80.07;;;8.02;;
62149;SDS011;48134;53.586;10.610;2023-08-20T05:01:36;25.00;;;7.47;;
62149;SDS011;48134;53.586;10.610;2023-08-20T05:04:11;58.97;;;8.40;;
62149;SDS011;48134;53.586;10.610;2023-08-20T05:06:44;36.67;;;9.35;;
62149;SDS011;48134;53.586;10.610;2023-08-20T05:09:13;26.42;;;8.65;;
62149;SDS011;48134;53.586;10.610;2023-08-20T05:11:46;46.33;;;9.63;;
62149;SDS011;48134;53.586;10.610;2023-08-20T05:14:20;19.70;;;9.50;;
62149;SDS011;48134;53.586;10.610;2023-08-20T05:16:55;27.52;;;10.63;;
62149;SDS011;48134;53.586;10.610;2023-08-20T05:19:28;20.17;;;10.20;;
62149;SDS011;48134;53.586;10.610;2023-08-20T05:22:01;21.35;;;10.45;;
62149;SDS011;48134;53.586;10.610;2023-08-20T05:24:35;23.20;;;10.40;;
62149;SDS011;48134;53.586;10.610;2023-08-20T05:27:04;22.38;;;9.70;;
62149;SDS011;48134;53.586;10.610;2023-08-20T05:29:38;20.00;;;9.83;;
62149;SDS011;48134;53.586;10.610;2023-08-20T05:32:13;19.92;;;9.10;;
62149;SDS011;48134;53.586;10.610;2023-08-20T05:34:47;17.27;;;8.57;;
62149;SDS011;48134;53.586;10.610;2023-08-20T05:37:21;15.32;;;8.27;;
62149;SDS011;48134;53.586;10.610;2023-08-20T05:39:54;16.50;;;8.32;;
62149;SDS011;48134;53.586;10.610;2023-08-20T05:42:28;16.55;;;8.65;;
62149;SDS011;48134;53.586;10.610;2023-08-20T05:45:05;18.52;;;8.70;;
62149;SDS011;48134;53.586;10.610;2023-08-20T05:47:40;17.08;;;8.88;;
62149;SDS011;48134;53.586;10.610;2023-08-20T05:50:14;23.08;;;9.40;;
62149;SDS011;48134;53.586;10.610;2023-08-20T05:52:47;19.40;;;9.75;;
62149;SDS011;48134;53.586;10.610;2023-08-20T05:55:16;18.48;;;9.27;;
62149;SDS011;48134;53.586;10.610;2023-08-20T05:57:49;16.98;;;9.20;;
62149;SDS011;48134;53.586;10.610;2023-08-20T06:00:17;20.23;;;9.30;;
62149;SDS011;48134;53.586;10.610;2023-08-20T06:02:52;16.60;;;8.93;;
62149;SDS011;48134;53.586;10.610;2023-08-20T06:05:26;17.98;;;9.00;;
62149;SDS011;48134;53.586;10.610;2023-08-20T06:07:59;18.58;;;9.20;;
62149;SDS011;48134;53.586;10.610;2023-08-20T06:10:27;17.63;;;8.50;;
62149;SDS011;48134;53.586;10.610;2023-08-20T06:13:00;18.30;;;8.57;;
62149;SDS011;48134;53.586;10.610;2023-08-20T06:15:30;17.27;;;8.20;;
62149;SDS011;48134;53.586;10.610;2023-08-20T06:17:59;17.92;;;8.70;;
62149;SDS011;48134;53.586;10.610;2023-08-20T06:20:27;18.85;;;9.20;;
62149;SDS011;48134;53.586;10.610;2023-08-20T06:22:56;17.38;;;8.40;;
62149;SDS011;48134;53.586;10.610;2023-08-20T06:25:29;20.67;;;9.23;;
62149;SDS011;48134;53.586;10.610;2023-08-20T06:27:58;19.23;;;8.80;;
62149;SDS011;48134;53.586;10.610;2023-08-20T06:30:31;20.92;;;9.55;;
62149;SDS011;48134;53.586;10.610;2023-08-20T06:33:05;20.15;;;9.80;;
62149;SDS011;48134;53.586;10.610;2023-08-20T06:35:39;21.67;;;9.88;;
62149;SDS011;48134;53.586;10.610;2023-08-20T06:38:14;22.90;;;9.97;;
62149;SDS011;48134;53.586;10.610;2023-08-20T06:40:42;21.70;;;10.23;;
62149;SDS011;48134;53.586;10.610;2023-08-20T06:43:10;20.90;;;10.25;;
62149;SDS011;48134;53.586;10.610;2023-08-20T06:45:43;23.00;;;11.05;;
62149;SDS011;48134;53.586;10.610;2023-08-20T06:48:18;27.33;;;12.25;;
62149;SDS011;48134;53.586;10.610;2023-08-20T06:50:47;22.60;;;11.25;;
62149;SDS011;48134;53.586;10.610;2023-08-20T06:53:20;21.50;;;10.57;;
62149;SDS011;48134;53.586;10.610;2023-08-20T06:55:48;22.83;;;9.65;;
62149;SDS011;48134;53.586;10.610;2023-08-20T06:58:21;21.10;;;9.48;;
62149;SDS011;48134;53.586;10.610;2023-08-20T07:00:54;21.02;;;9.50;;
62149;SDS011;48134;53.586;10.610;2023-08-20T07:03:24;18.20;;;8.98;;
62149;SDS011;48134;53.586;10.610;2023-08-20T07:05:52;17.52;;;9.40;;
62149;SDS011;48134;53.586;10.610;2023-08-20T07:08:20;17.85;;;8.90;;
62149;SDS011;48134;53.586;10.610;2023-08-20T07:10:49;20.15;;;8.57;;
62149;SDS011;48134;53.586;10.610;2023-08-20T07:13:22;20.67;;;8.90;;
62149;SDS011;48134;53.586;10.610;2023-08-20T07:15:56;18.60;;;7.70;;
62149;SDS011;48134;53.586;10.610;2023-08-20T07:18:25;20.00;;;6.70;;
62149;SDS011;48134;53.586;10.610;2023-08-20T07:20:58;16.73;;;6.70;;
62149;SDS011;48134;53.586;10.610;2023-08-20T07:23:27;18.20;;;6.75;;
62149;SDS011;48134;53.586;10.610;2023-08-20T07:26:04;13.87;;;6.23;;
62149;SDS011;48134;53.586;10.610;2023-08-20T07:28:38;17.20;;;6.47;;
62149;SDS011;48134;53.586;10.610;2023-08-20T07:31:30;17.05;;;6.40;;
62149;SDS011;48134;53.586;10.610;2023-08-20T07:34:01;17.42;;;7.30;;
62149;SDS011;48134;53.586;10.610;2023-08-20T07:36:36;17.73;;;6.70;;
62149;SDS011;48134;53.586;10.610;2023-08-20T07:39:09;15.30;;;6.30;;
62149;SDS011;48134;53.586;10.610;2023-08-20T07:41:37;16.48;;;5.85;;
62149;SDS011;48134;53.586;10.610;2023-08-20T07:44:10;16.20;;;6.78;;
62149;SDS011;48134;53.586;10.610;2023-08-20T07:46:39;16.20;;;6.60;;
62149;SDS011;48134;53.586;10.610;2023-08-20T07:49:08;15.15;;;6.20;;
62149;SDS011;48134;53.586;10.610;2023-08-20T07:51:36;15.38;;;6.38;;
62149;SDS011;48134;53.586;10.610;2023-08-20T07:54:10;14.52;;;6.05;;
62149;SDS011;48134;53.586;10.610;2023-08-20T07:56:43;14.32;;;6.70;;
62149;SDS011;48134;53.586;10.610;2023-08-20T07:59:16;18.10;;;8.23;;
62149;SDS011;48134;53.586;10.610;2023-08-20T08:01:44;18.77;;;8.45;;
62149;SDS011;48134;53.586;10.610;2023-08-20T08:04:18;17.42;;;7.80;;
62149;SDS011;48134;53.586;10.610;2023-08-20T08:06:47;16.17;;;8.00;;
62149;SDS011;48134;53.586;10.610;2023-08-20T08:09:18;16.95;;;7.72;;
62149;SDS011;48134;53.586;10.610;2023-08-20T08:11:48;14.85;;;6.82;;
62149;SDS011;48134;53.586;10.610;2023-08-20T08:14:17;14.73;;;6.30;;
62149;SDS011;48134;53.586;10.610;2023-08-20T08:16:45;17.25;;;7.72;;
62149;SDS011;48134;53.586;10.610;2023-08-20T08:19:14;17.17;;;7.80;;
62149;SDS011;48134;53.586;10.610;2023-08-20T08:21:43;18.13;;;8.07;;
62149;SDS011;48134;53.586;10.610;2023-08-20T08:24:12;15.73;;;7.05;;
62149;SDS011;48134;53.586;10.610;2023-08-20T08:26:46;15.93;;;6.60;;
62149;SDS011;48134;53.586;10.610;2023-08-20T08:29:19;13.48;;;6.63;;
62149;SDS011;48134;53.586;10.610;2023-08-20T08:31:47;15.15;;;6.43;;
62149;SDS011;48134;53.586;10.610;2023-08-20T08:34:16;13.02;;;6.18;;
62149;SDS011;48134;53.586;10.610;2023-08-20T08:36:51;17.95;;;6.53;;
62149;SDS011;48134;53.586;10.610;2023-08-20T08:39:19;15.75;;;6.40;;
62149;SDS011;48134;53.586;10.610;2023-08-20T08:41:54;13.63;;;4.70;;
62149;SDS011;48134;53.586;10.610;2023-08-20T08:44:33;9.18;;;3.97;;
62149;SDS011;48134;53.586;10.610;2023-08-20T08:47:07;12.20;;;3.80;;
62149;SDS011;48134;53.586;10.610;2023-08-20T08:49:35;9.65;;;3.60;;
62149;SDS011;48134;53.586;10.610;2023-08-20T08:52:05;13.63;;;4.05;;
62149;SDS011;48134;53.586;10.610;2023-08-20T08:54:33;13.57;;;4.10;;
62149;SDS011;48134;53.586;10.610;2023-08-20T08:57:01;12.90;;;3.97;;
62149;SDS011;48134;53.586;10.610;2023-08-20T08:59:30;11.00;;;3.63;;
62149;SDS011;48134;53.586;10.610;2023-08-20T09:01:59;11.10;;;3.80;;
62149;SDS011;48134;53.586;10.610;2023-08-20T09:04:34;9.45;;;3.53;;
62149;SDS011;48134;53.586;10.610;2023-08-20T09:07:07;10.82;;;3.40;;
62149;SDS011;48134;53.586;10.610;2023-08-20T09:09:41;14.47;;;3.50;;
62149;SDS011;48134;53.586;10.610;2023-08-20T09:12:13;9.50;;;3.50;;
62149;SDS011;48134;53.586;10.610;2023-08-20T09:14:43;10.68;;;3.33;;
62149;SDS011;48134;53.586;10.610;2023-08-20T09:17:14;8.80;;;2.63;;
62149;SDS011;48134;53.586;10.610;2023-08-20T09:19:46;7.00;;;2.50;;
62149;SDS011;48134;53.586;10.610;2023-08-20T09:22:16;9.00;;;2.60;;
62149;SDS011;48134;53.586;10.610;2023-08-20T09:24:46;7.47;;;2.42;;
62149;SDS011;48134;53.586;10.610;2023-08-20T09:27:20;10.05;;;2.63;;
62149;SDS011;48134;53.586;10.610;2023-08-20T09:29:49;6.78;;;2.33;;
62149;SDS011;48134;53.586;10.610;2023-08-20T09:32:19;8.73;;;2.80;;
62149;SDS011;48134;53.586;10.610;2023-08-20T09:34:48;8.67;;;2.80;;
62149;SDS011;48134;53.586;10.610;2023-08-20T09:37:19;11.15;;;2.78;;
62149;SDS011;48134;53.586;10.610;2023-08-20T09:39:49;8.80;;;2.67;;
62149;SDS011;48134;53.586;10.610;2023-08-20T09:42:17;11.10;;;3.08;;
62149;SDS011;48134;53.586;10.610;2023-08-20T09:44:46;7.87;;;3.10;;
62149;SDS011;48134;53.586;10.610;2023-08-20T09:47:16;8.40;;;3.00;;
62149;SDS011;48134;53.586;10.610;2023-08-20T09:49:45;11.05;;;3.13;;
62149;SDS011;48134;53.586;10.610;2023-08-20T09:52:16;10.80;;;3.20;;
62149;SDS011;48134;53.586;10.610;2023-08-20T09:54:53;10.75;;;3.53;;
62149;SDS011;48134;53.586;10.610;2023-08-20T09:57:33;20.80;;;10.85;;
62149;SDS011;48134;53.586;10.610;2023-08-20T10:00:02;10.25;;;4.20;;
62149;SDS011;48134;53.586;10.610;2023-08-20T10:02:42;9.75;;;3.20;;
62149;SDS011;48134;53.586;10.610;2023-08-20T10:05:11;9.33;;;3.30;;
62149;SDS011;48134;53.586;10.610;2023-08-20T10:07:41;7.80;;;3.30;;
62149;SDS011;48134;53.586;10.610;2023-08-20T10:10:17;9.73;;;3.85;;
62149;SDS011;48134;53.586;10.610;2023-08-20T10:12:45;10.85;;;3.72;;
62149;SDS011;48134;53.586;10.610;2023-08-20T10:15:20;9.82;;;3.92;;
62149;SDS011;48134;53.586;10.610;2023-08-20T10:17:55;8.70;;;3.70;;
62149;SDS011;48134;53.586;10.610;2023-08-20T10:20:25;9.02;;;4.03;;
62149;SDS011;48134;53.586;10.610;2023-08-20T10:22:59;10.27;;;4.00;;
62149;SDS011;48134;53.586;10.610;2023-08-20T10:25:31;10.33;;;4.30;;
62149;SDS011;48134;53.586;10.610;2023-08-20T10:28:13;10.27;;;4.28;;
62149;SDS011;48134;53.586;10.610;2023-08-20T10:31:08;11.02;;;4.25;;
62149;SDS011;48134;53.586;10.610;2023-08-20T10:33:38;11.98;;;4.55;;
62149;SDS011;48134;53.586;10.610;2023-08-20T10:36:21;11.27;;;4.55;;
62149;SDS011;48134;53.586;10.610;2023-08-20T10:39:02;10.30;;;4.95;;
62149;SDS011;48134;53.586;10.610;2023-08-20T10:41:38;12.07;;;4.68;;
62149;SDS011;48134;53.586;10.610;2023-08-20T10:44:07;12.48;;;4.95;;
62149;SDS011;48134;53.586;10.610;2023-08-20T10:46:35;13.25;;;4.60;;
62149;SDS011;48134;53.586;10.610;2023-08-20T10:49:18;11.35;;;4.80;;
62149;SDS011;48134;53.586;10.610;2023-08-20T10:51:46;10.18;;;4.50;;
62149;SDS011;48134;53.586;10.610;2023-08-20T10:54:20;11.50;;;5.00;;
62149;SDS011;48134;53.586;10.610;2023-08-20T10:56:54;12.05;;;5.00;;
62149;SDS011;48134;53.586;10.610;2023-08-20T10:59:30;10.02;;;4.43;;
62149;SDS011;48134;53.586;10.610;2023-08-20T11:01:58;10.30;;;4.03;;
62149;SDS011;48134;53.586;10.610;2023-08-20T11:04:32;8.80;;;3.90;;
62149;SDS011;48134;53.586;10.610;2023-08-20T11:07:00;8.82;;;3.97;;
62149;SDS011;48134;53.586;10.610;2023-08-20T11:09:34;10.90;;;4.30;;
62149;SDS011;48134;53.586;10.610;2023-08-20T11:12:12;8.10;;;3.45;;
62149;SDS011;48134;53.586;10.610;2023-08-20T11:14:42;11.05;;;3.78;;
62149;SDS011;48134;53.586;10.610;2023-08-20T11:17:10;12.77;;;4.20;;
62149;SDS011;48134;53.586;10.610;2023-08-20T11:19:43;10.00;;;3.90;;
62149;SDS011;48134;53.586;10.610;2023-08-20T11:22:11;11.82;;;3.80;;
62149;SDS011;48134;53.586;10.610;2023-08-20T11:24:47;9.52;;;3.33;;
62149;SDS011;48134;53.586;10.610;2023-08-20T11:27:17;8.98;;;3.15;;
62149;SDS011;48134;53.586;10.610;2023-08-20T11:29:45;13.50;;;3.20;;
62149;SDS011;48134;53.586;10.610;2023-08-20T11:32:13;7.95;;;2.90;;
62149;SDS011;48134;53.586;10.610;2023-08-20T11:34:47;8.13;;;2.67;;
62149;SDS011;48134;53.586;10.610;2023-08-20T11:37:17;7.28;;;2.70;;
62149;SDS011;48134;53.586;10.610;2023-08-20T11:39:47;8.70;;;3.00;;
62149;SDS011;48134;53.586;10.610;2023-08-20T11:42:16;9.55;;;2.58;;
62149;SDS011;48134;53.586;10.610;2023-08-20T11:44:50;6.80;;;3.00;;
62149;SDS011;48134;53.586;10.610;2023-08-20T11:47:23;8.63;;;3.00;;
62149;SDS011;48134;53.586;10.610;2023-08-20T11:50:03;9.60;;;3.42;;
62149;SDS011;48134;53.586;10.610;2023-08-20T11:52:32;8.23;;;2.90;;
62149;SDS011;48134;53.586;10.610;2023-08-20T11:55:06;8.85;;;2.83;;
62149;SDS011;48134;53.586;10.610;2023-08-20T11:57:42;7.55;;;3.20;;
62149;SDS011;48134;53.586;10.610;2023-08-20T12:00:23;9.77;;;3.30;;
62149;SDS011;48134;53.586;10.610;2023-08-20T12:02:58;8.95;;;2.97;;
62149;SDS011;48134;53.586;10.610;2023-08-20T12:05:27;11.13;;;3.05;;
62149;SDS011;48134;53.586;10.610;2023-08-20T12:08:00;8.77;;;3.20;;
62149;SDS011;48134;53.586;10.610;2023-08-20T12:10:41;8.13;;;3.15;;
62149;SDS011;48134;53.586;10.610;2023-08-20T12:13:16;9.48;;;3.50;;
62149;SDS011;48134;53.586;10.610;2023-08-20T12:15:44;8.63;;;3.28;;
62149;SDS011;48134;53.586;10.610;2023-08-20T12:18:12;8.15;;;3.50;;
62149;SDS011;48134;53.586;10.610;2023-08-20T12:20:41;10.43;;;3.58;;
62149;SDS011;48134;53.586;10.610;2023-08-20T12:23:14;14.15;;;3.70;;
62149;SDS011;48134;53.586;10.610;2023-08-20T12:25:42;9.30;;;3.10;;
62149;SDS011;48134;53.586;10.610;2023-08-20T12:28:10;10.57;;;3.40;;
62149;SDS011;48134;53.586;10.610;2023-08-20T12:30:45;10.67;;;3.67;;
62149;SDS011;48134;53.586;10.610;2023-08-20T12:33:13;7.47;;;3.17;;
62149;SDS011;48134;53.586;10.610;2023-08-20T12:35:41;8.70;;;3.80;;
62149;SDS011;48134;53.586;10.610;2023-08-20T12:38:15;7.57;;;3.20;;
62149;SDS011;48134;53.586;10.610;2023-08-20T12:40:48;7.97;;;2.80;;
62149;SDS011;48134;53.586;10.610;2023-08-20T12:43:16;10.25;;;3.33;;
62149;SDS011;48134;53.586;10.610;2023-08-20T12:45:51;7.63;;;3.00;;
62149;SDS011;48134;53.586;10.610;2023-08-20T12:48:24;7.63;;;3.60;;
62149;SDS011;48134;53.586;10.610;2023-08-20T12:50:52;6.93;;;3.00;;
62149;SDS011;48134;53.586;10.610;2023-08-20T12:53:20;7.75;;;2.90;;
62149;SDS011;48134;53.586;10.610;2023-08-20T12:55:49;10.93;;;3.10;;
62149;SDS011;48134;53.586;10.610;2023-08-20T12:58:17;6.57;;;3.05;;
62149;SDS011;48134;53.586;10.610;2023-08-20T13:00:45;7.38;;;3.08;;
62149;SDS011;48134;53.586;10.610;2023-08-20T13:03:15;8.45;;;2.80;;
62149;SDS011;48134;53.586;10.610;2023-08-20T13:05:45;10.25;;;3.83;;
62149;SDS011;48134;53.586;10.610;2023-08-20T13:08:14;12.45;;;3.20;;
62149;SDS011;48134;53.586;10.610;2023-08-20T13:10:50;8.73;;;2.73;;
62149;SDS011;48134;53.586;10.610;2023-08-20T13:13:21;12.33;;;3.27;;
62149;SDS011;48134;53.586;10.610;2023-08-20T13:15:56;8.50;;;3.20;;
62149;SDS011;48134;53.586;10.610;2023-08-20T13:18:26;6.70;;;2.67;;
62149;SDS011;48134;53.586;10.610;2023-08-20T13:20:55;6.47;;;2.70;;
62149;SDS011;48134;53.586;10.610;2023-08-20T13:23:28;7.18;;;2.50;;
62149;SDS011;48134;53.586;10.610;2023-08-20T13:26:01;10.45;;;3.13;;
62149;SDS011;48134;53.586;10.610;2023-08-20T13:28:29;7.35;;;2.92;;
62149;SDS011;48134;53.586;10.610;2023-08-20T13:31:03;7.13;;;2.65;;
62149;SDS011;48134;53.586;10.610;2023-08-20T13:33:32;6.25;;;2.60;;
62149;SDS011;48134;53.586;10.610;2023-08-20T13:36:05;5.75;;;2.63;;
62149;SDS011;48134;53.586;10.610;2023-08-20T13:38:34;9.85;;;3.13;;
62149;SDS011;48134;53.586;10.610;2023-08-20T13:41:03;8.02;;;2.97;;
62149;SDS011;48134;53.586;10.610;2023-08-20T13:43:36;10.05;;;3.10;;
62149;SDS011;48134;53.586;10.610;2023-08-20T13:46:04;9.77;;;2.97;;
62149;SDS011;48134;53.586;10.610;2023-08-20T13:48:34;7.35;;;2.95;;
62149;SDS011;48134;53.586;10.610;2023-08-20T13:51:07;7.43;;;2.97;;
62149;SDS011;48134;53.586;10.610;2023-08-20T13:53:35;11.10;;;2.80;;
62149;SDS011;48134;53.586;10.610;2023-08-20T13:56:08;9.05;;;3.20;;
62149;SDS011;48134;53.586;10.610;2023-08-20T13:58:41;7.35;;;2.72;;
62149;SDS011;48134;53.586;10.610;2023-08-20T14:01:09;6.77;;;2.60;;
62149;SDS011;48134;53.586;10.610;2023-08-20T14:03:44;8.15;;;2.78;;
62149;SDS011;48134;53.586;10.610;2023-08-20T14:06:12;8.20;;;2.80;;
62149;SDS011;48134;53.586;10.610;2023-08-20T14:08:45;8.75;;;2.70;;
62149;SDS011;48134;53.586;10.610;2023-08-20T14:11:19;8.18;;;2.80;;
62149;SDS011;48134;53.586;10.610;2023-08-20T14:13:53;8.13;;;2.92;;
62149;SDS011;48134;53.586;10.610;2023-08-20T14:16:21;6.20;;;2.63;;
62149;SDS011;48134;53.586;10.610;2023-08-20T14:18:50;6.83;;;2.80;;
62149;SDS011;48134;53.586;10.610;2023-08-20T14:21:24;8.45;;;3.00;;
62149;SDS011;48134;53.586;10.610;2023-08-20T14:23:52;8.07;;;3.17;;
62149;SDS011;48134;53.586;10.610;2023-08-20T14:26:20;9.57;;;3.00;;
62149;SDS011;48134;53.586;10.610;2023-08-20T14:28:48;7.57;;;2.80;;
62149;SDS011;48134;53.586;10.610;2023-08-20T14:31:16;8.15;;;3.08;;
62149;SDS011;48134;53.586;10.610;2023-08-20T14:33:45;8.23;;;3.13;;
62149;SDS011;48134;53.586;10.610;2023-08-20T14:36:15;6.93;;;2.90;;
62149;SDS011;48134;53.586;10.610;2023-08-20T14:38:43;9.77;;;3.03;;
62149;SDS011;48134;53.586;10.610;2023-08-20T14:41:11;7.30;;;3.10;;
62149;SDS011;48134;53.586;10.610;2023-08-20T14:43:44;7.03;;;3.07;;
62149;SDS011;48134;53.586;10.610;2023-08-20T14:46:13;10.40;;;3.00;;
62149;SDS011;48134;53.586;10.610;2023-08-20T14:48:41;8.60;;;2.70;;
62149;SDS011;48134;53.586;10.610;2023-08-20T14:51:16;8.52;;;2.88;;